sensor_id;sensor_type;location;lat;lon;timestamp;pressure;altitude;pressure_sealevel;temperature;humidity
39411;BME280;26579;43.238;23.124;2023-02-28T00:02:16;97611.13;;;7.97;70.41
39411;BME280;26579;43.238;23.124;2023-02-28T00:04:42;97615.94;;;8.03;70.91
39411;BME280;26579;43.238;23.124;2023-02-28T00:07:07;97626.78;;;7.96;70.71
39411;BME280;26579;43.238;23.124;2023-02-28T00:09:33;97621.97;;;7.89;70.21
39411;BME280;26579;43.238;23.124;2023-02-28T00:11:59;97639.09;;;8.06;69.87
39411;BME280;26579;43.238;23.124;2023-02-28T00:14:24;97632.91;;;8.09;69.84
39411;BME280;26579;43.238;23.124;2023-02-28T00:16:50;97631.78;;;8.13;69.64
39411;BME280;26579;43.238;23.124;2023-02-28T00:19:16;97640.38;;;8.13;69.83
39411;BME280;26579;43.238;23.124;2023-02-28T00:21:41;97645.94;;;8.07;70.47
39411;BME280;26579;43.238;23.124;2023-02-28T00:24:07;97640.75;;;8.22;70.36
39411;BME280;26579;43.238;23.124;2023-02-28T00:26:33;97655.38;;;8.23;69.96
39411;BME280;26579;43.238;23.124;2023-02-28T00:29:00;97656.13;;;8.10;69.64
39411;BME280;26579;43.238;23.124;2023-02-28T00:31:25;97640.00;;;7.91;70.20
39411;BME280;26579;43.238;23.124;2023-02-28T00:33:51;97639.38;;;8.16;69.86
39411;BME280;26579;43.238;23.124;2023-02-28T00:36:17;97652.25;;;8.18;69.99
39411;BME280;26579;43.238;23.124;2023-02-28T00:38:42;97643.53;;;8.19;70.26
39411;BME280;26579;43.238;23.124;2023-02-28T00:41:09;97649.47;;;8.06;70.30
39411;BME280;26579;43.238;23.124;2023-02-28T00:43:36;97660.56;;;8.08;69.46
39411;BME280;26579;43.238;23.124;2023-02-28T00:46:03;97654.28;;;8.12;70.05
39411;BME280;26579;43.238;23.124;2023-02-28T00:48:29;97665.75;;;8.23;69.90
39411;BME280;26579;43.238;23.124;2023-02-28T00:50:55;97656.41;;;8.20;69.03
39411;BME280;26579;43.238;23.124;2023-02-28T00:53:20;97643.34;;;8.07;69.31
39411;BME280;26579;43.238;23.124;2023-02-28T00:55:46;97650.19;;;8.08;70.51
39411;BME280;26579;43.238;23.124;2023-02-28T00:58:12;97670.50;;;8.16;70.35
39411;BME280;26579;43.238;23.124;2023-02-28T01:00:38;97669.09;;;8.25;70.70
39411;BME280;26579;43.238;23.124;2023-02-28T01:03:03;97671.31;;;8.31;70.18
39411;BME280;26579;43.238;23.124;2023-02-28T01:05:29;97671.63;;;8.26;70.27
39411;BME280;26579;43.238;23.124;2023-02-28T01:07:55;97655.13;;;8.13;70.60
39411;BME280;26579;43.238;23.124;2023-02-28T01:10:22;97665.41;;;8.14;69.69
39411;BME280;26579;43.238;23.124;2023-02-28T01:12:48;97657.34;;;8.19;69.82
39411;BME280;26579;43.238;23.124;2023-02-28T01:15:15;97656.69;;;8.15;70.53
39411;BME280;26579;43.238;23.124;2023-02-28T01:17:40;97665.75;;;8.23;70.54
39411;BME280;26579;43.238;23.124;2023-02-28T01:20:06;97670.22;;;8.21;70.86
39411;BME280;26579;43.238;23.124;2023-02-28T01:22:34;97672.16;;;8.17;70.76
39411;BME280;26579;43.238;23.124;2023-02-28T01:25:00;97653.63;;;7.94;72.13
39411;BME280;26579;43.238;23.124;2023-02-28T01:27:25;97662.34;;;8.08;70.69
39411;BME280;26579;43.238;23.124;2023-02-28T01:29:51;97651.59;;;8.00;70.65
39411;BME280;26579;43.238;23.124;2023-02-28T01:32:17;97664.28;;;8.04;71.05
39411;BME280;26579;43.238;23.124;2023-02-28T01:34:43;97663.69;;;7.85;71.59
39411;BME280;26579;43.238;23.124;2023-02-28T01:37:08;97674.00;;;8.01;70.98
39411;BME280;26579;43.238;23.124;2023-02-28T01:39:34;97663.16;;;8.08;71.10
39411;BME280;26579;43.238;23.124;2023-02-28T01:42:00;97661.44;;;8.09;70.70
39411;BME280;26579;43.238;23.124;2023-02-28T01:47:36;97656.31;;;7.93;71.69
39411;BME280;26579;43.238;23.124;2023-02-28T01:50:06;97663.88;;;7.82;72.05
39411;BME280;26579;43.238;23.124;2023-02-28T01:52:33;97658.88;;;7.79;71.94
39411;BME280;26579;43.238;23.124;2023-02-28T01:55:01;97660.75;;;7.77;72.13
39411;BME280;26579;43.238;23.124;2023-02-28T01:57:33;97654.06;;;7.72;71.84
39411;BME280;26579;43.238;23.124;2023-02-28T02:00:03;97656.66;;;7.72;72.11
39411;BME280;26579;43.238;23.124;2023-02-28T02:02:38;97654.78;;;7.60;72.64
39411;BME280;26579;43.238;23.124;2023-02-28T02:05:17;97663.78;;;7.69;72.53
39411;BME280;26579;43.238;23.124;2023-02-28T02:07:47;97663.03;;;7.67;72.46
39411;BME280;26579;43.238;23.124;2023-02-28T02:10:20;97658.84;;;7.64;71.89
39411;BME280;26579;43.238;23.124;2023-02-28T02:13:05;97662.97;;;7.68;73.23
39411;BME280;26579;43.238;23.124;2023-02-28T02:16:32;97675.13;;;7.52;73.62
39411;BME280;26579;43.238;23.124;2023-02-28T02:27:48;97664.53;;;7.41;74.53
39411;BME280;26579;43.238;23.124;2023-02-28T02:36:07;97676.78;;;7.53;74.42
39411;BME280;26579;43.238;23.124;2023-02-28T02:38:49;97670.56;;;7.41;74.63
39411;BME280;26579;43.238;23.124;2023-02-28T02:43:57;97659.50;;;7.23;73.66
39411;BME280;26579;43.238;23.124;2023-02-28T02:46:28;97662.66;;;7.29;73.43
39411;BME280;26579;43.238;23.124;2023-02-28T02:48:56;97669.50;;;7.30;73.86
39411;BME280;26579;43.238;23.124;2023-02-28T02:51:25;97675.47;;;7.46;73.20
39411;BME280;26579;43.238;23.124;2023-02-28T02:53:57;97676.09;;;7.35;73.54
39411;BME280;26579;43.238;23.124;2023-02-28T02:56:28;97673.06;;;7.43;73.63
39411;BME280;26579;43.238;23.124;2023-02-28T02:59:00;97670.34;;;7.60;72.85
39411;BME280;26579;43.238;23.124;2023-02-28T03:01:29;97654.06;;;7.72;71.88
39411;BME280;26579;43.238;23.124;2023-02-28T03:03:58;97668.34;;;7.80;71.56
39411;BME280;26579;43.238;23.124;2023-02-28T03:06:25;97671.28;;;7.74;71.82
39411;BME280;26579;43.238;23.124;2023-02-28T03:08:51;97686.72;;;7.61;72.69
39411;BME280;26579;43.238;23.124;2023-02-28T03:11:17;97670.06;;;7.51;72.12
39411;BME280;26579;43.238;23.124;2023-02-28T03:27:02;97687.56;;;7.31;72.76
39411;BME280;26579;43.238;23.124;2023-02-28T03:34:41;97697.91;;;7.31;73.08
39411;BME280;26579;43.238;23.124;2023-02-28T03:37:17;97702.69;;;7.23;73.03
39411;BME280;26579;43.238;23.124;2023-02-28T03:39:54;97705.22;;;7.24;73.11
39411;BME280;26579;43.238;23.124;2023-02-28T03:42:25;97701.28;;;7.17;73.86
39411;BME280;26579;43.238;23.124;2023-02-28T03:44:58;97708.97;;;7.19;73.24
39411;BME280;26579;43.238;23.124;2023-02-28T03:50:05;97721.88;;;7.35;72.59
39411;BME280;26579;43.238;23.124;2023-02-28T03:52:35;97723.13;;;7.43;72.98
39411;BME280;26579;43.238;23.124;2023-02-28T03:55:08;97721.19;;;7.47;73.00
39411;BME280;26579;43.238;23.124;2023-02-28T03:57:58;97729.94;;;7.60;72.57
39411;BME280;26579;43.238;23.124;2023-02-28T04:00:32;97731.13;;;7.55;72.23
39411;BME280;26579;43.238;23.124;2023-02-28T04:03:00;97724.66;;;7.62;71.93
39411;BME280;26579;43.238;23.124;2023-02-28T04:05:26;97717.78;;;7.46;71.72
39411;BME280;26579;43.238;23.124;2023-02-28T04:07:52;97724.31;;;7.38;72.20
39411;BME280;26579;43.238;23.124;2023-02-28T04:10:18;97719.13;;;7.38;72.54
39411;BME280;26579;43.238;23.124;2023-02-28T04:12:44;97726.47;;;7.45;73.17
39411;BME280;26579;43.238;23.124;2023-02-28T04:15:09;97733.31;;;7.46;72.86
39411;BME280;26579;43.238;23.124;2023-02-28T04:17:35;97719.72;;;7.43;72.57
39411;BME280;26579;43.238;23.124;2023-02-28T04:20:01;97729.19;;;7.58;72.08
39411;BME280;26579;43.238;23.124;2023-02-28T04:22:27;97717.53;;;7.51;72.39
39411;BME280;26579;43.238;23.124;2023-02-28T04:24:53;97733.91;;;7.52;71.85
39411;BME280;26579;43.238;23.124;2023-02-28T04:27:18;97724.06;;;7.26;72.80
39411;BME280;26579;43.238;23.124;2023-02-28T04:29:44;97710.50;;;7.07;73.02
39411;BME280;26579;43.238;23.124;2023-02-28T04:32:10;97715.34;;;7.13;73.72
39411;BME280;26579;43.238;23.124;2023-02-28T04:34:36;97723.25;;;7.26;73.36
39411;BME280;26579;43.238;23.124;2023-02-28T04:37:02;97733.91;;;7.36;73.61
39411;BME280;26579;43.238;23.124;2023-02-28T04:39:29;97734.19;;;7.31;73.59
39411;BME280;26579;43.238;23.124;2023-02-28T04:41:55;97732.66;;;7.27;73.68
39411;BME280;26579;43.238;23.124;2023-02-28T04:44:22;97736.47;;;7.21;73.38
39411;BME280;26579;43.238;23.124;2023-02-28T04:46:48;97736.38;;;7.23;73.16
39411;BME280;26579;43.238;23.124;2023-02-28T04:49:14;97725.66;;;7.29;73.42
39411;BME280;26579;43.238;23.124;2023-02-28T04:51:41;97739.59;;;7.26;72.93
39411;BME280;26579;43.238;23.124;2023-02-28T04:54:07;97745.63;;;7.27;73.31
39411;BME280;26579;43.238;23.124;2023-02-28T04:56:33;97736.47;;;7.21;72.98
39411;BME280;26579;43.238;23.124;2023-02-28T04:58:59;97747.56;;;7.23;73.14
39411;BME280;26579;43.238;23.124;2023-02-28T05:01:33;97742.88;;;7.14;73.82
39411;BME280;26579;43.238;23.124;2023-02-28T05:04:01;97759.53;;;7.10;73.44
39411;BME280;26579;43.238;23.124;2023-02-28T05:06:28;97753.59;;;7.08;73.91
39411;BME280;26579;43.238;23.124;2023-02-28T05:08:54;97757.66;;;7.28;73.17
39411;BME280;26579;43.238;23.124;2023-02-28T05:11:23;97758.16;;;7.35;73.53
39411;BME280;26579;43.238;23.124;2023-02-28T05:13:50;97744.72;;;7.28;73.01
39411;BME280;26579;43.238;23.124;2023-02-28T05:16:17;97751.06;;;7.22;72.73
39411;BME280;26579;43.238;23.124;2023-02-28T05:18:43;97751.00;;;7.08;73.46
39411;BME280;26579;43.238;23.124;2023-02-28T05:21:22;97761.09;;;7.29;73.19
39411;BME280;26579;43.238;23.124;2023-02-28T05:23:48;97756.16;;;7.24;73.09
39411;BME280;26579;43.238;23.124;2023-02-28T05:26:14;97762.19;;;7.24;73.21
39411;BME280;26579;43.238;23.124;2023-02-28T05:28:40;97751.06;;;7.22;73.19
39411;BME280;26579;43.238;23.124;2023-02-28T05:31:05;97767.09;;;7.45;72.85
39411;BME280;26579;43.238;23.124;2023-02-28T05:33:31;97755.81;;;7.46;72.32
39411;BME280;26579;43.238;23.124;2023-02-28T05:35:57;97767.94;;;7.45;73.14
39411;BME280;26579;43.238;23.124;2023-02-28T05:38:22;97767.75;;;7.33;73.16
39411;BME280;26579;43.238;23.124;2023-02-28T05:40:48;97755.03;;;7.44;72.96
39411;BME280;26579;43.238;23.124;2023-02-28T05:43:14;97772.09;;;7.48;72.60
39411;BME280;26579;43.238;23.124;2023-02-28T05:45:39;97778.28;;;7.45;73.05
39411;BME280;26579;43.238;23.124;2023-02-28T05:48:05;97786.13;;;7.44;72.75
39411;BME280;26579;43.238;23.124;2023-02-28T05:50:31;97788.78;;;7.58;72.90
39411;BME280;26579;43.238;23.124;2023-02-28T05:52:56;97790.97;;;7.66;72.19
39411;BME280;26579;43.238;23.124;2023-02-28T05:55:22;97780.50;;;7.67;71.38
39411;BME280;26579;43.238;23.124;2023-02-28T05:57:48;97772.72;;;7.67;71.76
39411;BME280;26579;43.238;23.124;2023-02-28T06:00:14;97789.09;;;7.84;71.39
39411;BME280;26579;43.238;23.124;2023-02-28T06:02:39;97786.59;;;7.66;71.99
39411;BME280;26579;43.238;23.124;2023-02-28T06:05:07;97796.16;;;7.66;72.51
39411;BME280;26579;43.238;23.124;2023-02-28T06:07:38;97798.97;;;7.61;73.38
39411;BME280;26579;43.238;23.124;2023-02-28T06:10:04;97797.41;;;7.59;72.95
39411;BME280;26579;43.238;23.124;2023-02-28T06:12:29;97782.72;;;7.43;73.17
39411;BME280;26579;43.238;23.124;2023-02-28T06:14:55;97805.28;;;7.41;73.44
39411;BME280;26579;43.238;23.124;2023-02-28T06:17:21;97789.25;;;7.19;74.29
39411;BME280;26579;43.238;23.124;2023-02-28T06:19:46;97797.75;;;7.21;74.54
39411;BME280;26579;43.238;23.124;2023-02-28T06:22:12;97795.50;;;6.99;74.99
39411;BME280;26579;43.238;23.124;2023-02-28T06:24:38;97806.38;;;7.06;74.83
39411;BME280;26579;43.238;23.124;2023-02-28T06:27:03;97798.59;;;7.06;75.09
39411;BME280;26579;43.238;23.124;2023-02-28T06:29:29;97800.03;;;7.11;73.80
39411;BME280;26579;43.238;23.124;2023-02-28T06:31:55;97815.72;;;7.08;74.02
39411;BME280;26579;43.238;23.124;2023-02-28T06:34:20;97813.03;;;7.10;73.92
39411;BME280;26579;43.238;23.124;2023-02-28T06:36:46;97828.44;;;7.13;74.18
39411;BME280;26579;43.238;23.124;2023-02-28T06:39:12;97817.06;;;7.15;74.52
39411;BME280;26579;43.238;23.124;2023-02-28T06:41:38;97803.44;;;7.12;73.96
39411;BME280;26579;43.238;23.124;2023-02-28T06:44:14;97821.75;;;7.24;74.03
39411;BME280;26579;43.238;23.124;2023-02-28T06:46:41;97808.06;;;7.22;73.61
39411;BME280;26579;43.238;23.124;2023-02-28T06:49:07;97797.09;;;7.17;73.67
39411;BME280;26579;43.238;23.124;2023-02-28T06:51:33;97811.56;;;7.21;73.54
39411;BME280;26579;43.238;23.124;2023-02-28T06:53:59;97814.38;;;7.33;73.41
39411;BME280;26579;43.238;23.124;2023-02-28T06:56:24;97809.53;;;7.26;73.78
39411;BME280;26579;43.238;23.124;2023-02-28T06:58:50;97803.38;;;7.29;73.58
39411;BME280;26579;43.238;23.124;2023-02-28T07:01:17;97817.66;;;7.36;73.72
39411;BME280;26579;43.238;23.124;2023-02-28T07:03:42;97805.78;;;7.32;73.25
39411;BME280;26579;43.238;23.124;2023-02-28T07:06:08;97801.69;;;7.28;73.33
39411;BME280;26579;43.238;23.124;2023-02-28T07:08:35;97811.56;;;7.37;73.49
39411;BME280;26579;43.238;23.124;2023-02-28T07:11:01;97816.81;;;7.36;73.54
39411;BME280;26579;43.238;23.124;2023-02-28T07:13:26;97819.56;;;7.33;74.23
39411;BME280;26579;43.238;23.124;2023-02-28T07:15:57;97819.09;;;7.10;74.67
39411;BME280;26579;43.238;23.124;2023-02-28T07:18:24;97809.13;;;7.02;75.75
39411;BME280;26579;43.238;23.124;2023-02-28T07:20:50;97809.47;;;7.12;75.41
39411;BME280;26579;43.238;23.124;2023-02-28T07:23:16;97797.00;;;7.03;75.46
39411;BME280;26579;43.238;23.124;2023-02-28T07:25:41;97818.31;;;7.08;75.67
39411;BME280;26579;43.238;23.124;2023-02-28T07:28:07;97815.50;;;7.13;75.59
39411;BME280;26579;43.238;23.124;2023-02-28T07:30:33;97812.72;;;7.00;74.75
39411;BME280;26579;43.238;23.124;2023-02-28T07:32:59;97806.31;;;7.07;75.13
39411;BME280;26579;43.238;23.124;2023-02-28T07:35:25;97810.88;;;7.18;73.78
39411;BME280;26579;43.238;23.124;2023-02-28T07:37:50;97816.66;;;7.23;73.66
39411;BME280;26579;43.238;23.124;2023-02-28T07:40:16;97811.31;;;7.26;73.98
39411;BME280;26579;43.238;23.124;2023-02-28T07:42:42;97818.50;;;7.37;74.02
39411;BME280;26579;43.238;23.124;2023-02-28T07:45:09;97811.06;;;7.31;73.89
39411;BME280;26579;43.238;23.124;2023-02-28T07:47:35;97806.78;;;7.30;73.79
39411;BME280;26579;43.238;23.124;2023-02-28T07:50:00;97820.84;;;7.25;73.90
39411;BME280;26579;43.238;23.124;2023-02-28T07:52:26;97816.25;;;7.31;74.08
39411;BME280;26579;43.238;23.124;2023-02-28T07:54:52;97819.91;;;7.26;73.65
39411;BME280;26579;43.238;23.124;2023-02-28T07:57:18;97821.06;;;7.21;73.39
39411;BME280;26579;43.238;23.124;2023-02-28T07:59:43;97821.66;;;7.26;73.75
39411;BME280;26579;43.238;23.124;2023-02-28T08:02:17;97832.28;;;7.37;73.32
39411;BME280;26579;43.238;23.124;2023-02-28T08:04:43;97842.88;;;7.33;73.66
39411;BME280;26579;43.238;23.124;2023-02-28T08:07:09;97843.06;;;7.45;73.49
39411;BME280;26579;43.238;23.124;2023-02-28T08:09:35;97847.41;;;7.61;72.47
39411;BME280;26579;43.238;23.124;2023-02-28T08:12:01;97851.16;;;7.55;72.24
39411;BME280;26579;43.238;23.124;2023-02-28T08:14:26;97848.91;;;7.49;73.13
39411;BME280;26579;43.238;23.124;2023-02-28T08:16:52;97854.09;;;7.33;73.49
39411;BME280;26579;43.238;23.124;2023-02-28T08:19:18;97835.72;;;7.22;74.24
39411;BME280;26579;43.238;23.124;2023-02-28T08:21:43;97856.25;;;7.41;73.46
39411;BME280;26579;43.238;23.124;2023-02-28T08:24:09;97859.63;;;7.43;73.62
39411;BME280;26579;43.238;23.124;2023-02-28T08:26:35;97848.75;;;7.36;73.86
39411;BME280;26579;43.238;23.124;2023-02-28T08:29:00;97864.03;;;7.41;73.88
39411;BME280;26579;43.238;23.124;2023-02-28T08:31:26;97851.00;;;7.42;74.12
39411;BME280;26579;43.238;23.124;2023-02-28T08:33:52;97867.22;;;7.30;74.03
39411;BME280;26579;43.238;23.124;2023-02-28T08:36:17;97862.38;;;7.40;73.75
39411;BME280;26579;43.238;23.124;2023-02-28T08:38:43;97844.91;;;7.28;73.27
39411;BME280;26579;43.238;23.124;2023-02-28T08:41:11;97867.56;;;7.40;73.80
39411;BME280;26579;43.238;23.124;2023-02-28T08:43:37;97870.41;;;7.51;73.74
39411;BME280;26579;43.238;23.124;2023-02-28T08:46:04;97846.63;;;7.27;73.18
39411;BME280;26579;43.238;23.124;2023-02-28T08:48:32;97851.69;;;7.30;74.08
39411;BME280;26579;43.238;23.124;2023-02-28T08:51:03;97871.41;;;7.48;73.58
39411;BME280;26579;43.238;23.124;2023-02-28T08:53:29;97862.34;;;7.56;73.47
39411;BME280;26579;43.238;23.124;2023-02-28T08:56:00;97863.13;;;7.58;73.26
39411;BME280;26579;43.238;23.124;2023-02-28T08:58:27;97857.50;;;7.49;73.52
39411;BME280;26579;43.238;23.124;2023-02-28T09:00:53;97868.38;;;7.40;73.77
39411;BME280;26579;43.238;23.124;2023-02-28T09:03:19;97871.75;;;7.42;73.53
39411;BME280;26579;43.238;23.124;2023-02-28T09:05:54;97867.22;;;7.46;74.01
39411;BME280;26579;43.238;23.124;2023-02-28T09:08:20;97852.44;;;7.48;73.76
39411;BME280;26579;43.238;23.124;2023-02-28T09:10:45;97844.66;;;7.48;73.25
39411;BME280;26579;43.238;23.124;2023-02-28T09:13:11;97855.94;;;7.63;73.39
39411;BME280;26579;43.238;23.124;2023-02-28T09:15:38;97842.13;;;7.46;73.44
39411;BME280;26579;43.238;23.124;2023-02-28T09:18:03;97847.63;;;7.56;74.00
39411;BME280;26579;43.238;23.124;2023-02-28T09:20:29;97850.06;;;7.43;73.98
39411;BME280;26579;43.238;23.124;2023-02-28T09:22:55;97856.84;;;7.46;74.02
39411;BME280;26579;43.238;23.124;2023-02-28T09:25:21;97864.19;;;7.38;74.65
39411;BME280;26579;43.238;23.124;2023-02-28T09:27:46;97855.53;;;7.39;74.16
39411;BME280;26579;43.238;23.124;2023-02-28T09:30:13;97855.44;;;7.40;74.86
39411;BME280;26579;43.238;23.124;2023-02-28T09:32:38;97849.31;;;7.41;74.91
39411;BME280;26579;43.238;23.124;2023-02-28T09:35:05;97858.84;;;7.41;74.91
39411;BME280;26579;43.238;23.124;2023-02-28T09:37:31;97851.84;;;7.43;75.03
39411;BME280;26579;43.238;23.124;2023-02-28T09:39:57;97853.84;;;7.54;74.72
39411;BME280;26579;43.238;23.124;2023-02-28T09:42:32;97850.41;;;7.69;74.40
39411;BME280;26579;43.238;23.124;2023-02-28T09:45:00;97855.31;;;7.74;74.06
39411;BME280;26579;43.238;23.124;2023-02-28T09:47:36;97861.44;;;7.72;74.36
39411;BME280;26579;43.238;23.124;2023-02-28T09:50:50;97850.91;;;7.60;74.17
39411;BME280;26579;43.238;23.124;2023-02-28T09:53:23;97831.13;;;7.43;75.25
39411;BME280;26579;43.238;23.124;2023-02-28T09:55:55;97855.84;;;7.48;74.94
39411;BME280;26579;43.238;23.124;2023-02-28T09:58:28;97857.34;;;7.53;75.25
39411;BME280;26579;43.238;23.124;2023-02-28T10:01:06;97867.47;;;7.57;75.42
39411;BME280;26579;43.238;23.124;2023-02-28T10:03:47;97862.88;;;7.62;74.41
39411;BME280;26579;43.238;23.124;2023-02-28T10:06:18;97863.13;;;7.58;74.89
39411;BME280;26579;43.238;23.124;2023-02-28T10:09:04;97861.34;;;7.58;74.85
39411;BME280;26579;43.238;23.124;2023-02-28T10:11:34;97863.19;;;7.56;74.53
39411;BME280;26579;43.238;23.124;2023-02-28T10:14:06;97858.53;;;7.63;74.60
39411;BME280;26579;43.238;23.124;2023-02-28T10:17:23;97864.19;;;7.69;74.29
39411;BME280;26579;43.238;23.124;2023-02-28T10:19:41;97849.00;;;7.63;73.58
39411;BME280;26579;43.238;23.124;2023-02-28T10:22:20;97855.66;;;7.67;73.60
39411;BME280;26579;43.238;23.124;2023-02-28T10:24:50;97855.94;;;7.63;73.64
39411;BME280;26579;43.238;23.124;2023-02-28T10:27:21;97860.59;;;7.72;73.73
39411;BME280;26579;43.238;23.124;2023-02-28T10:29:53;97860.34;;;7.77;73.17
39411;BME280;26579;43.238;23.124;2023-02-28T10:32:25;97846.28;;;7.81;72.90
39411;BME280;26579;43.238;23.124;2023-02-28T10:35:16;97857.41;;;7.67;74.46
39411;BME280;26579;43.238;23.124;2023-02-28T10:37:44;97855.34;;;7.58;75.44
39411;BME280;26579;43.238;23.124;2023-02-28T10:43:05;97850.50;;;7.52;74.68
39411;BME280;26579;43.238;23.124;2023-02-28T10:45:33;97845.22;;;7.53;76.39
39411;BME280;26579;43.238;23.124;2023-02-28T10:48:03;97853.44;;;7.45;75.86
39411;BME280;26579;43.238;23.124;2023-02-28T10:51:02;97852.25;;;7.51;74.76
39411;BME280;26579;43.238;23.124;2023-02-28T10:58:52;97847.94;;;7.82;73.20
39411;BME280;26579;43.238;23.124;2023-02-28T11:01:42;97838.44;;;7.66;74.29
39411;BME280;26579;43.238;23.124;2023-02-28T11:04:35;97852.00;;;7.71;73.42
39411;BME280;26579;43.238;23.124;2023-02-28T11:07:05;97848.47;;;7.72;74.02
39411;BME280;26579;43.238;23.124;2023-02-28T11:09:39;97842.03;;;7.80;73.25
39411;BME280;26579;43.238;23.124;2023-02-28T11:12:07;97838.84;;;7.75;73.11
39411;BME280;26579;43.238;23.124;2023-02-28T11:14:49;97850.66;;;7.80;73.99
39411;BME280;26579;43.238;23.124;2023-02-28T11:17:21;97848.94;;;7.79;74.26
39411;BME280;26579;43.238;23.124;2023-02-28T11:19:51;97850.81;;;7.77;74.75
39411;BME280;26579;43.238;23.124;2023-02-28T11:22:24;97849.41;;;7.71;74.63
39411;BME280;26579;43.238;23.124;2023-02-28T11:24:53;97843.03;;;7.61;75.60
39411;BME280;26579;43.238;23.124;2023-02-28T11:29:55;97835.63;;;7.39;75.61
39411;BME280;26579;43.238;23.124;2023-02-28T11:32:23;97851.31;;;7.52;76.04
39411;BME280;26579;43.238;23.124;2023-02-28T11:35:18;97853.00;;;7.37;76.38
39411;BME280;26579;43.238;23.124;2023-02-28T11:37:46;97850.56;;;7.50;75.49
39411;BME280;26579;43.238;23.124;2023-02-28T11:40:17;97829.34;;;7.43;75.08
39411;BME280;26579;43.238;23.124;2023-02-28T11:51:44;97842.31;;;7.59;75.34
39411;BME280;26579;43.238;23.124;2023-02-28T11:56:40;97840.78;;;7.55;74.77
39411;BME280;26579;43.238;23.124;2023-02-28T11:59:24;97834.84;;;7.53;74.87
39411;BME280;26579;43.238;23.124;2023-02-28T12:02:13;97834.53;;;7.59;75.00
39411;BME280;26579;43.238;23.124;2023-02-28T12:05:09;97822.47;;;7.58;73.80
39411;BME280;26579;43.238;23.124;2023-02-28T12:10:29;97826.59;;;7.62;74.12
39411;BME280;26579;43.238;23.124;2023-02-28T12:13:12;97831.25;;;7.71;73.82
39411;BME280;26579;43.238;23.124;2023-02-28T12:21:18;97816.53;;;7.72;73.31
39411;BME280;26579;43.238;23.124;2023-02-28T12:27:00;97825.91;;;7.75;73.21
39411;BME280;26579;43.238;23.124;2023-02-28T12:29:39;97832.22;;;7.85;72.80
39411;BME280;26579;43.238;23.124;2023-02-28T12:32:20;97815.72;;;7.71;74.04
39411;BME280;26579;43.238;23.124;2023-02-28T12:34:54;97830.56;;;7.84;74.95
39411;BME280;26579;43.238;23.124;2023-02-28T12:39:54;97832.41;;;7.82;73.15
39411;BME280;26579;43.238;23.124;2023-02-28T12:42:29;97835.44;;;7.58;74.15
39411;BME280;26579;43.238;23.124;2023-02-28T12:45:02;97816.50;;;7.42;74.85
39411;BME280;26579;43.238;23.124;2023-02-28T12:47:29;97821.50;;;7.45;74.45
39411;BME280;26579;43.238;23.124;2023-02-28T12:50:10;97837.63;;;7.50;74.49
39411;BME280;26579;43.238;23.124;2023-02-28T13:01:32;97827.59;;;7.28;75.05
39411;BME280;26579;43.238;23.124;2023-02-28T13:09:52;97833.38;;;7.49;74.24
39411;BME280;26579;43.238;23.124;2023-02-28T13:12:18;97814.22;;;7.36;74.06
39411;BME280;26579;43.238;23.124;2023-02-28T13:14:43;97819.56;;;7.33;75.12
39411;BME280;26579;43.238;23.124;2023-02-28T13:28:13;97819.16;;;7.09;76.62
39411;BME280;26579;43.238;23.124;2023-02-28T13:38:48;97813.09;;;6.76;77.96
39411;BME280;26579;43.238;23.124;2023-02-28T13:49:29;97810.38;;;7.11;76.28
39411;BME280;26579;43.238;23.124;2023-02-28T13:55:01;97805.28;;;7.25;75.90
39411;BME280;26579;43.238;23.124;2023-02-28T14:00:39;97798.53;;;7.39;74.60
39411;BME280;26579;43.238;23.124;2023-02-28T14:06:24;97792.50;;;7.22;74.48
39411;BME280;26579;43.238;23.124;2023-02-28T14:09:33;97788.09;;;7.24;75.10
39411;BME280;26579;43.238;23.124;2023-02-28T14:11:42;97792.00;;;7.32;74.76
39411;BME280;26579;43.238;23.124;2023-02-28T14:14:41;97791.50;;;7.41;74.67
39411;BME280;26579;43.238;23.124;2023-02-28T14:16:55;97784.47;;;7.43;74.32
39411;BME280;26579;43.238;23.124;2023-02-28T14:19:26;97792.91;;;7.46;74.22
39411;BME280;26579;43.238;23.124;2023-02-28T14:30:24;97804.03;;;7.33;75.02
39411;BME280;26579;43.238;23.124;2023-02-28T14:38:43;97807.88;;;7.41;74.85
39411;BME280;26579;43.238;23.124;2023-02-28T14:41:21;97812.22;;;7.57;74.49
39411;BME280;26579;43.238;23.124;2023-02-28T14:43:49;97801.34;;;7.66;74.33
39411;BME280;26579;43.238;23.124;2023-02-28T14:46:17;97802.66;;;7.73;73.57
39411;BME280;26579;43.238;23.124;2023-02-28T14:48:46;97807.69;;;7.60;73.74
39411;BME280;26579;43.238;23.124;2023-02-28T14:51:18;97808.28;;;7.49;74.48
39411;BME280;26579;43.238;23.124;2023-02-28T14:53:49;97792.06;;;7.46;74.18
39411;BME280;26579;43.238;23.124;2023-02-28T14:56:35;97809.38;;;7.45;74.37
39411;BME280;26579;43.238;23.124;2023-02-28T14:59:02;97809.03;;;7.36;74.15
39411;BME280;26579;43.238;23.124;2023-02-28T15:01:27;97819.81;;;7.44;74.27
39411;BME280;26579;43.238;23.124;2023-02-28T15:04:02;97792.75;;;7.34;74.52
39411;BME280;26579;43.238;23.124;2023-02-28T15:06:28;97813.75;;;7.45;74.48
39411;BME280;26579;43.238;23.124;2023-02-28T15:11:37;97804.72;;;7.05;75.67
39411;BME280;26579;43.238;23.124;2023-02-28T15:14:04;97808.78;;;6.93;76.50
39411;BME280;26579;43.238;23.124;2023-02-28T15:16:41;97810.19;;;6.83;77.69
39411;BME280;26579;43.238;23.124;2023-02-28T15:19:23;97813.75;;;6.80;77.84
39411;BME280;26579;43.238;23.124;2023-02-28T15:21:55;97811.72;;;6.87;76.95
39411;BME280;26579;43.238;23.124;2023-02-28T15:24:42;97809.53;;;6.95;76.57
39411;BME280;26579;43.238;23.124;2023-02-28T15:27:31;97808.69;;;6.94;76.81
39411;BME280;26579;43.238;23.124;2023-02-28T15:30:15;97817.94;;;6.83;77.21
39411;BME280;26579;43.238;23.124;2023-02-28T15:32:42;97818.78;;;6.83;77.18
39411;BME280;26579;43.238;23.124;2023-02-28T15:40:31;97819.38;;;6.72;76.63
39411;BME280;26579;43.238;23.124;2023-02-28T15:43:18;97833.03;;;6.74;77.52
39411;BME280;26579;43.238;23.124;2023-02-28T15:46:06;97840.13;;;6.71;77.49